createdAt,value
2018-10-09T00:02:19.970Z,98529.61
2018-10-09T00:04:48.799Z,98519.89
2018-10-09T00:07:17.571Z,98522.64
2018-10-09T00:09:46.325Z,98520.53
2018-10-09T00:12:15.252Z,98522.00
2018-10-09T00:14:44.039Z,98519.11
2018-10-09T00:17:12.814Z,98521.85
2018-10-09T00:19:41.696Z,98527.30
2018-10-09T00:22:10.407Z,98531.11
2018-10-09T00:24:39.245Z,98531.75
2018-10-09T00:27:08.234Z,98527.26
2018-10-09T00:29:37.072Z,98526.25
2018-10-09T00:32:05.971Z,98524.94
2018-10-09T00:34:34.843Z,98526.00
2018-10-09T00:37:03.695Z,98527.30
2018-10-09T00:39:32.379Z,98526.55
2018-10-09T00:42:01.434Z,98523.59
2018-10-09T00:44:30.171Z,98522.49
2018-10-09T00:46:59.023Z,98529.45
2018-10-09T00:49:28.245Z,98525.40
2018-10-09T00:51:57.108Z,98520.30
2018-10-09T00:54:25.830Z,98521.14
2018-10-09T00:56:54.534Z,98518.75
2018-10-09T00:59:23.470Z,98519.83
2018-10-09T01:01:52.332Z,98520.64
2018-10-09T01:04:21.190Z,98523.64
2018-10-09T01:06:50.051Z,98521.52
2018-10-09T01:09:18.873Z,98520.38
2018-10-09T01:11:47.719Z,98519.84
2018-10-09T01:14:16.514Z,98513.98
2018-10-09T01:16:45.513Z,98518.20
2018-10-09T01:19:14.362Z,98527.69
2018-10-09T01:21:43.162Z,98524.48
2018-10-09T01:24:11.900Z,98518.69
2018-10-09T01:26:40.813Z,98517.92
2018-10-09T01:29:09.610Z,98516.20
2018-10-09T01:31:38.318Z,98513.17
2018-10-09T01:34:07.065Z,98517.17
2018-10-09T01:36:35.864Z,98520.17
2018-10-09T01:39:05.395Z,98515.48
2018-10-09T01:41:34.271Z,98509.02
2018-10-09T01:44:03.038Z,98513.91
2018-10-09T01:46:31.790Z,98515.04
2018-10-09T01:49:00.592Z,98509.13
2018-10-09T01:51:29.322Z,98508.88
2018-10-09T01:53:58.088Z,98517.77
2018-10-09T01:56:27.054Z,98513.47
2018-10-09T01:58:55.768Z,98507.56
2018-10-09T02:01:24.526Z,98499.77
2018-10-09T02:03:53.334Z,98490.06
2018-10-09T02:06:22.361Z,98489.81
2018-10-09T02:08:51.163Z,98491.52
2018-10-09T02:11:19.894Z,98494.47
2018-10-09T02:13:48.566Z,98490.46
2018-10-09T02:16:17.470Z,98500.19
2018-10-09T02:18:46.495Z,98496.20
2018-10-09T02:21:15.276Z,98489.72
2018-10-09T02:23:44.023Z,98488.86
2018-10-09T02:26:13.223Z,98501.31
2018-10-09T02:28:42.006Z,98506.99
2018-10-09T02:31:10.955Z,98510.27
2018-10-09T02:33:39.870Z,98505.91
2018-10-09T02:36:08.758Z,98505.39
2018-10-09T02:38:37.718Z,98506.70
2018-10-09T02:41:06.842Z,98507.98
2018-10-09T02:43:35.706Z,98510.17
2018-10-09T02:46:04.477Z,98516.08
2018-10-09T02:48:33.391Z,98520.19
2018-10-09T02:51:02.113Z,98527.70
2018-10-09T02:53:30.790Z,98527.41
2018-10-09T02:55:59.517Z,98520.41
2018-10-09T02:58:28.350Z,98522.82
2018-10-09T03:00:57.146Z,98530.11
2018-10-09T03:03:25.921Z,98533.35
2018-10-09T03:05:54.726Z,98537.05
2018-10-09T03:08:23.574Z,98535.67
2018-10-09T03:10:52.312Z,98538.62
2018-10-09T03:13:21.073Z,98539.16
2018-10-09T03:15:49.831Z,98554.19
2018-10-09T03:18:18.635Z,98561.48
2018-10-09T03:20:47.510Z,98559.94
2018-10-09T03:23:16.329Z,98562.64
2018-10-09T03:25:44.986Z,98556.82
2018-10-09T03:28:14.017Z,98550.63
2018-10-09T03:30:42.774Z,98540.58
2018-10-09T03:33:11.471Z,98555.03
2018-10-09T03:35:40.183Z,98558.50
2018-10-09T03:38:08.958Z,98554.48
2018-10-09T03:40:37.745Z,98554.84
2018-10-09T03:43:06.823Z,98552.72
2018-10-09T03:45:35.952Z,98557.91
2018-10-09T03:48:04.845Z,98551.14
2018-10-09T03:50:33.643Z,98554.03
2018-10-09T03:53:02.466Z,98553.55
2018-10-09T03:55:31.274Z,98552.48
2018-10-09T03:58:00.139Z,98548.76
2018-10-09T04:00:28.902Z,98543.91
2018-10-09T04:02:57.762Z,98540.95
2018-10-09T04:05:26.534Z,98539.41
2018-10-09T04:07:55.234Z,98540.78
2018-10-09T04:10:24.039Z,98543.50
2018-10-09T04:12:52.812Z,98541.66
2018-10-09T04:15:21.859Z,98541.41
2018-10-09T04:17:51.226Z,98539.56
2018-10-09T04:20:20.007Z,98541.97
2018-10-09T04:22:48.837Z,98539.80
2018-10-09T04:25:17.635Z,98545.42
2018-10-09T04:27:46.375Z,98545.16
2018-10-09T04:30:15.169Z,98548.64
2018-10-09T04:32:43.913Z,98541.66
2018-10-09T04:35:12.812Z,98544.44
2018-10-09T04:37:41.598Z,98550.63
2018-10-09T04:40:10.435Z,98560.06
2018-10-09T04:42:39.204Z,98567.05
2018-10-09T04:45:08.051Z,98567.30
2018-10-09T04:47:36.910Z,98565.12
2018-10-09T04:50:05.883Z,98563.77
2018-10-09T04:52:34.771Z,98564.03
2018-10-09T04:55:03.640Z,98563.23
2018-10-09T04:57:32.426Z,98561.10
2018-10-09T05:00:01.270Z,98559.84
2018-10-09T05:02:30.118Z,98556.84
2018-10-09T05:04:59.051Z,98554.20
2018-10-09T05:07:27.906Z,98549.06
2018-10-09T05:09:56.920Z,98553.89
2018-10-09T05:12:25.718Z,98554.97
2018-10-09T05:14:54.612Z,98554.72
2018-10-09T05:17:23.471Z,98553.89
2018-10-09T05:19:52.174Z,98555.80
2018-10-09T05:22:20.955Z,98561.22
2018-10-09T05:24:49.656Z,98561.76
2018-10-09T05:27:18.475Z,98561.22
2018-10-09T05:29:47.443Z,98576.05
2018-10-09T05:32:16.214Z,98576.84
2018-10-09T05:34:45.122Z,98577.38
2018-10-09T05:37:13.906Z,98580.59
2018-10-09T05:39:42.751Z,98587.31
2018-10-09T05:42:11.493Z,98591.11
2018-10-09T05:44:40.320Z,98590.31
2018-10-09T05:47:09.090Z,98586.82
2018-10-09T05:49:38.035Z,98592.48
2018-10-09T05:52:07.616Z,98592.48
2018-10-09T05:54:37.076Z,98591.66
2018-10-09T05:57:06.172Z,98594.37
2018-10-09T05:59:35.067Z,98598.66
2018-10-09T06:02:04.142Z,98602.71
2018-10-09T06:04:33.194Z,98602.44
2018-10-09T06:07:01.909Z,98608.05
2018-10-09T06:09:31.091Z,98609.13
2018-10-09T06:11:59.939Z,98606.14
2018-10-09T06:14:28.965Z,98607.20
2018-10-09T06:16:58.022Z,98613.37
2018-10-09T06:19:26.921Z,98600.45
2018-10-09T06:21:55.746Z,98614.48
2018-10-09T06:24:24.689Z,98617.69
2018-10-09T06:26:53.577Z,98615.77
2018-10-09T06:29:22.349Z,98612.09
2018-10-09T06:31:51.481Z,98614.48
2018-10-09T06:34:20.303Z,98618.77
2018-10-09T06:36:49.039Z,98613.59
2018-10-09T06:39:17.900Z,98612.72
2018-10-09T06:41:46.811Z,98612.44
2018-10-09T06:44:15.635Z,98615.66
2018-10-09T06:46:44.391Z,98614.83
2018-10-09T06:49:13.195Z,98621.07
2018-10-09T06:51:42.074Z,98617.21
2018-10-09T06:54:11.004Z,98620.45
2018-10-09T06:56:39.781Z,98624.77
2018-10-09T06:59:08.496Z,98627.95
2018-10-09T07:01:37.179Z,98621.44
2018-10-09T07:04:06.062Z,98620.14
2018-10-09T07:06:34.951Z,98621.69
2018-10-09T07:09:05.076Z,98619.11
2018-10-09T07:11:33.954Z,98624.91
2018-10-09T07:14:02.723Z,98623.64
2018-10-09T07:16:31.630Z,98621.95
2018-10-09T07:19:00.459Z,98628.38
2018-10-09T07:21:29.314Z,98629.53
2018-10-09T07:23:58.183Z,98629.36
2018-10-09T07:26:27.069Z,98633.63
2018-10-09T07:28:55.859Z,98631.99
2018-10-09T07:31:24.775Z,98632.31
2018-10-09T07:33:53.598Z,98631.97
2018-10-09T07:36:22.318Z,98634.95
2018-10-09T07:38:51.026Z,98640.38
2018-10-09T07:41:19.918Z,98636.11
2018-10-09T07:43:48.735Z,98646.36
2018-10-09T07:46:17.539Z,98651.89
2018-10-09T07:48:46.277Z,98650.44
2018-10-09T07:51:15.145Z,98663.58
2018-10-09T07:53:43.958Z,98661.69
2018-10-09T07:56:12.693Z,98667.59
2018-10-09T07:58:41.455Z,98669.81
2018-10-09T08:01:10.534Z,98672.05
2018-10-09T08:03:39.547Z,98673.03
2018-10-09T08:06:14.940Z,98675.06
2018-10-09T08:08:43.722Z,98674.44
2018-10-09T08:11:12.546Z,98666.84
2018-10-09T08:13:41.518Z,98671.44
2018-10-09T08:16:10.896Z,98663.52
2018-10-09T08:18:39.799Z,98667.98
2018-10-09T08:21:08.627Z,98669.33
2018-10-09T08:23:37.428Z,98671.33
2018-10-09T08:26:06.250Z,98670.09
2018-10-09T08:28:35.208Z,98665.72
2018-10-09T08:31:04.086Z,98669.69
2018-10-09T08:33:33.166Z,98669.40
2018-10-09T08:36:01.997Z,98670.50
2018-10-09T08:38:30.826Z,98661.58
2018-10-09T08:40:59.573Z,98656.72
2018-10-09T08:43:28.440Z,98660.33
2018-10-09T08:45:57.206Z,98658.98
2018-10-09T08:48:26.140Z,98656.56
2018-10-09T08:50:54.914Z,98657.36
2018-10-09T08:53:23.719Z,98657.78
2018-10-09T08:55:52.525Z,98659.97
2018-10-09T08:58:21.354Z,98654.14
2018-10-09T09:00:50.075Z,98657.27
2018-10-09T09:03:19.044Z,98652.45
2018-10-09T09:05:47.982Z,98645.34
2018-10-09T09:08:16.877Z,98650.64
2018-10-09T09:10:45.698Z,98653.53
2018-10-09T09:13:14.435Z,98653.42
2018-10-09T09:15:43.325Z,98663.02
2018-10-09T09:18:12.225Z,98665.61
2018-10-09T09:20:41.169Z,98663.51
2018-10-09T09:23:09.685Z,98667.11
2018-10-09T09:25:38.472Z,98668.39
2018-10-09T09:28:07.275Z,98672.52
2018-10-09T09:30:36.037Z,98670.63
2018-10-09T09:33:04.991Z,98668.14
2018-10-09T09:35:33.813Z,98675.94
2018-10-09T09:38:03.123Z,98670.90
2018-10-09T09:40:31.920Z,98669.30
2018-10-09T09:43:00.835Z,98671.65
2018-10-09T09:45:29.832Z,98657.78
2018-10-09T09:47:58.642Z,98662.17
2018-10-09T09:50:27.628Z,98652.47
2018-10-09T09:52:56.673Z,98643.05
2018-10-09T09:55:25.486Z,98640.28
2018-10-09T09:57:54.284Z,98643.33
2018-10-09T10:00:28.250Z,98642.84
2018-10-09T10:02:57.394Z,98641.17
2018-10-09T10:05:26.267Z,98641.80
2018-10-09T10:07:55.122Z,98643.22
2018-10-09T10:10:23.871Z,98644.33
2018-10-09T10:12:52.611Z,98645.31
2018-10-09T10:15:21.414Z,98644.61
2018-10-09T10:17:50.295Z,98637.80
2018-10-09T10:20:19.213Z,98640.69
2018-10-09T10:22:48.062Z,98640.98
2018-10-09T10:25:17.006Z,98626.98
2018-10-09T10:27:46.005Z,98631.61
2018-10-09T10:30:14.868Z,98632.80
2018-10-09T10:32:43.890Z,98631.49
2018-10-09T10:35:12.742Z,98625.93
2018-10-09T10:37:41.635Z,98623.09
2018-10-09T10:40:10.548Z,98616.66
2018-10-09T10:42:39.399Z,98621.72
2018-10-09T10:45:08.448Z,98618.09
2018-10-09T10:47:37.273Z,98613.55
2018-10-09T10:50:07.951Z,98609.99
2018-10-09T10:52:36.763Z,98608.44
2018-10-09T10:55:05.742Z,98611.63
2018-10-09T10:57:34.857Z,98611.98
2018-10-09T11:00:04.186Z,98602.03
2018-10-09T11:02:33.355Z,98610.30
2018-10-09T11:05:02.081Z,98602.67
2018-10-09T11:07:30.933Z,98603.62
2018-10-09T11:09:59.817Z,98600.69
2018-10-09T11:12:28.819Z,98602.11
2018-10-09T11:14:57.522Z,98600.59
2018-10-09T11:17:26.342Z,98594.64
2018-10-09T11:19:55.157Z,98591.13
2018-10-09T11:22:24.073Z,98598.30
2018-10-09T11:24:52.806Z,98584.95
2018-10-09T11:27:21.610Z,98584.00
2018-10-09T11:29:50.430Z,98582.11
2018-10-09T11:32:19.229Z,98580.45
2018-10-09T11:34:48.022Z,98572.53
2018-10-09T11:37:16.845Z,98575.41
2018-10-09T11:39:45.568Z,98569.64
2018-10-09T11:42:14.490Z,98566.10
2018-10-09T11:44:43.201Z,98563.04
2018-10-09T11:47:12.018Z,98556.94
2018-10-09T11:49:40.926Z,98549.70
2018-10-09T11:52:09.647Z,98552.59
2018-10-09T11:54:38.546Z,98545.94
2018-10-09T11:57:07.537Z,98540.30
2018-10-09T11:59:36.612Z,98536.93
2018-10-09T12:02:05.457Z,98535.96
2018-10-09T12:04:34.257Z,98530.05
2018-10-09T12:07:03.022Z,98526.91
2018-10-09T12:09:31.896Z,98526.91
2018-10-09T12:12:00.682Z,98525.28
2018-10-09T12:14:29.444Z,98512.52
2018-10-09T12:16:58.517Z,98511.34
2018-10-09T12:19:27.356Z,98512.73
2018-10-09T12:21:56.353Z,98503.12
2018-10-09T12:24:25.166Z,98498.91
2018-10-09T12:26:54.111Z,98497.07
2018-10-09T12:29:22.934Z,98491.80
2018-10-09T12:31:51.718Z,98497.50
2018-10-09T12:34:20.571Z,98497.49
2018-10-09T12:36:49.576Z,98486.50
2018-10-09T12:39:18.394Z,98491.61
2018-10-09T12:41:47.267Z,98486.59
2018-10-09T12:44:16.137Z,98486.88
2018-10-09T12:46:44.805Z,98483.47
2018-10-09T12:49:13.642Z,98479.13
2018-10-09T12:51:42.570Z,98475.63
2018-10-09T12:54:11.553Z,98476.16
2018-10-09T12:56:40.426Z,98473.95
2018-10-09T12:59:09.405Z,98478.13
2018-10-09T13:01:38.110Z,98479.09
2018-10-09T13:04:06.898Z,98474.32
2018-10-09T13:06:35.886Z,98473.58
2018-10-09T13:09:06.951Z,98468.67
2018-10-09T13:11:35.892Z,98471.88
2018-10-09T13:14:04.684Z,98463.93
2018-10-09T13:16:33.394Z,98471.88
2018-10-09T13:19:02.378Z,98472.36
2018-10-09T13:21:31.925Z,98471.48
2018-10-09T13:24:00.942Z,98473.09
2018-10-09T13:26:29.718Z,98468.80
2018-10-09T13:28:58.537Z,98467.98
2018-10-09T13:31:27.814Z,98460.75
2018-10-09T13:33:56.714Z,98455.81
2018-10-09T13:36:25.551Z,98453.69
2018-10-09T13:38:54.305Z,98453.59
2018-10-09T13:41:23.209Z,98446.87
2018-10-09T13:43:51.947Z,98450.08
2018-10-09T13:46:20.852Z,98453.77
2018-10-09T13:48:49.539Z,98439.80
2018-10-09T13:51:18.323Z,98442.86
2018-10-09T13:53:47.285Z,98441.13
2018-10-09T13:56:16.210Z,98433.96
2018-10-09T13:58:45.084Z,98430.72
2018-10-09T14:01:13.889Z,98430.67
2018-10-09T14:03:42.608Z,98426.28
2018-10-09T14:06:11.602Z,98424.33
2018-10-09T14:08:40.353Z,98422.79
2018-10-09T14:11:09.514Z,98426.06
2018-10-09T14:13:38.565Z,98422.92
2018-10-09T14:16:07.387Z,98425.25
2018-10-09T14:18:36.114Z,98420.25
2018-10-09T14:21:04.881Z,98418.16
2018-10-09T14:23:33.782Z,98427.88
2018-10-09T14:26:02.871Z,98424.55
2018-10-09T14:28:31.624Z,98432.61
2018-10-09T14:31:00.487Z,98431.44
2018-10-09T14:33:29.425Z,98435.14
2018-10-09T14:35:58.281Z,98429.35
2018-10-09T14:38:27.102Z,98426.37
2018-10-09T14:40:56.114Z,98428.39
2018-10-09T14:43:24.905Z,98430.52
2018-10-09T14:45:53.805Z,98426.27
2018-10-09T14:48:22.690Z,98428.28
2018-10-09T14:50:51.490Z,98427.39
2018-10-09T14:53:20.247Z,98434.55
2018-10-09T14:55:48.973Z,98430.80
2018-10-09T14:58:17.914Z,98433.97
2018-10-09T15:00:46.988Z,98435.72
2018-10-09T15:03:15.906Z,98425.75
2018-10-09T15:05:44.602Z,98428.63
2018-10-09T15:08:13.391Z,98427.91
2018-10-09T15:10:42.106Z,98430.28
2018-10-09T15:13:11.275Z,98432.83
2018-10-09T15:15:40.121Z,98430.13
2018-10-09T15:18:08.936Z,98427.16
2018-10-09T15:20:37.657Z,98432.88
2018-10-09T15:23:06.677Z,98434.70
2018-10-09T15:25:35.533Z,98441.86
2018-10-09T15:28:04.721Z,98442.79
2018-10-09T15:30:33.644Z,98446.87
2018-10-09T15:33:02.632Z,98443.25
2018-10-09T15:35:31.846Z,98449.20
2018-10-09T15:38:00.558Z,98444.50
2018-10-09T15:40:29.411Z,98443.95
2018-10-09T15:42:58.231Z,98448.06
2018-10-09T15:45:26.986Z,98446.50
2018-10-09T15:47:56.006Z,98447.70
2018-10-09T15:50:24.962Z,98453.22
2018-10-09T15:52:53.708Z,98450.08
2018-10-09T15:55:22.594Z,98448.27
2018-10-09T15:57:51.530Z,98448.52
2018-10-09T16:00:20.551Z,98443.29
2018-10-09T16:02:49.622Z,98449.92
2018-10-09T16:05:19.695Z,98446.75
2018-10-09T16:07:48.427Z,98446.53
2018-10-09T16:10:17.359Z,98447.00
2018-10-09T16:12:46.216Z,98447.70
2018-10-09T16:15:14.952Z,98449.73
2018-10-09T16:17:43.759Z,98450.62
2018-10-09T16:20:12.504Z,98457.00
2018-10-09T16:22:41.519Z,98450.62
2018-10-09T16:25:10.299Z,98451.97
2018-10-09T16:27:39.111Z,98455.17
2018-10-09T16:30:07.922Z,98450.12
2018-10-09T16:32:36.675Z,98447.39
2018-10-09T16:35:05.647Z,98454.89
2018-10-09T16:37:34.646Z,98456.01
2018-10-09T16:40:03.682Z,98456.64
2018-10-09T16:42:32.400Z,98460.48
2018-10-09T16:45:01.427Z,98459.88
2018-10-09T16:47:30.252Z,98459.70
2018-10-09T16:49:59.145Z,98459.67
2018-10-09T16:52:27.981Z,98461.34
2018-10-09T16:54:56.728Z,98463.01
2018-10-09T16:57:25.420Z,98465.88
2018-10-09T16:59:54.147Z,98463.83
2018-10-09T17:02:23.333Z,98469.17
2018-10-09T17:04:52.110Z,98471.01
2018-10-09T17:07:21.268Z,98473.58
2018-10-09T17:09:50.140Z,98485.69
2018-10-09T17:12:19.000Z,98484.27
2018-10-09T17:14:48.205Z,98484.70
2018-10-09T17:17:17.091Z,98485.91
2018-10-09T17:19:45.841Z,98483.59
2018-10-09T17:22:14.639Z,98490.17
2018-10-09T17:24:43.407Z,98486.13
2018-10-09T17:27:12.190Z,98486.08
2018-10-09T17:29:40.954Z,98487.38
2018-10-09T17:32:09.715Z,98491.07
2018-10-09T17:34:38.631Z,98488.21
2018-10-09T17:37:07.439Z,98489.17
2018-10-09T17:39:36.251Z,98495.86
2018-10-09T17:42:05.034Z,98496.45
2018-10-09T17:44:34.080Z,98497.17
2018-10-09T17:47:09.852Z,98504.48
2018-10-09T17:49:40.173Z,98507.13
2018-10-09T17:52:09.914Z,98511.88
2018-10-09T17:54:38.638Z,98514.13
2018-10-09T17:57:07.538Z,98507.72
2018-10-09T17:59:36.436Z,98512.70
2018-10-09T18:02:05.222Z,98508.87
2018-10-09T18:04:34.185Z,98510.94
2018-10-09T18:07:02.925Z,98504.20
2018-10-09T18:09:31.873Z,98504.21
2018-10-09T18:12:00.622Z,98503.33
2018-10-09T18:14:29.336Z,98500.66
2018-10-09T18:16:58.214Z,98492.68
2018-10-09T18:19:26.972Z,98500.34
2018-10-09T18:21:55.806Z,98495.78
2018-10-09T18:24:24.529Z,98501.88
2018-10-09T18:26:53.362Z,98493.16
2018-10-09T18:29:22.134Z,98503.53
2018-10-09T18:31:50.992Z,98497.84
2018-10-09T18:34:19.795Z,98498.16
2018-10-09T18:36:48.618Z,98498.95
2018-10-09T18:39:17.959Z,98505.41
2018-10-09T18:41:47.208Z,98500.11
2018-10-09T18:44:16.214Z,98501.59
2018-10-09T18:46:45.019Z,98508.72
2018-10-09T18:49:13.862Z,98504.38
2018-10-09T18:51:42.639Z,98503.28
2018-10-09T18:54:11.463Z,98506.21
2018-10-09T18:56:40.314Z,98509.98
2018-10-09T18:59:09.251Z,98513.82
2018-10-09T19:01:38.074Z,98513.34
2018-10-09T19:04:07.203Z,98515.14
2018-10-09T19:06:36.163Z,98515.82
2018-10-09T19:09:08.851Z,98517.45
2018-10-09T19:11:38.346Z,98519.66
2018-10-09T19:14:07.320Z,98522.13
2018-10-09T19:16:35.989Z,98520.66
2018-10-09T19:19:04.935Z,98525.59
2018-10-09T19:21:33.856Z,98528.20
2018-10-09T19:24:02.826Z,98526.74
2018-10-09T19:26:31.810Z,98533.33
2018-10-09T19:29:00.723Z,98524.89
2018-10-09T19:31:29.455Z,98528.28
2018-10-09T19:34:00.047Z,98529.58
2018-10-09T19:36:28.892Z,98534.27
2018-10-09T19:38:57.750Z,98541.41
2018-10-09T19:41:26.518Z,98543.99
2018-10-09T19:43:55.376Z,98545.55
2018-10-09T19:46:24.097Z,98542.28
2018-10-09T19:48:52.774Z,98542.32
2018-10-09T19:51:21.618Z,98547.33
2018-10-09T19:53:50.354Z,98544.48
2018-10-09T19:56:19.188Z,98548.72
2018-10-09T19:58:47.959Z,98550.67
2018-10-09T20:01:16.995Z,98551.02
2018-10-09T20:03:45.799Z,98550.28
2018-10-09T20:06:14.683Z,98545.27
2018-10-09T20:08:43.629Z,98550.45
2018-10-09T20:11:12.546Z,98555.63
2018-10-09T20:13:41.321Z,98557.70
2018-10-09T20:16:10.166Z,98555.03
2018-10-09T20:18:38.935Z,98548.66
2018-10-09T20:21:08.582Z,98554.08
2018-10-09T20:23:37.519Z,98558.76
2018-10-09T20:26:06.260Z,98559.72
2018-10-09T20:28:35.318Z,98556.85
2018-10-09T20:31:04.034Z,98566.71
2018-10-09T20:33:32.892Z,98562.73
2018-10-09T20:36:01.656Z,98562.23
2018-10-09T20:38:30.368Z,98556.58
2018-10-09T20:40:59.104Z,98556.60
2018-10-09T20:43:28.003Z,98556.91
2018-10-09T20:45:56.707Z,98554.20
2018-10-09T20:48:25.532Z,98557.80
2018-10-09T20:50:54.339Z,98555.55
2018-10-09T20:53:23.270Z,98561.08
2018-10-09T20:55:52.339Z,98563.07
2018-10-09T20:58:21.246Z,98559.64
2018-10-09T21:00:49.966Z,98562.16
2018-10-09T21:03:18.718Z,98561.80
2018-10-09T21:05:47.455Z,98562.84
2018-10-09T21:08:16.202Z,98564.01
2018-10-09T21:10:45.177Z,98569.01
2018-10-09T21:13:14.091Z,98563.42
2018-10-09T21:15:42.859Z,98564.28
2018-10-09T21:18:11.806Z,98567.23
2018-10-09T21:20:40.514Z,98561.52
2018-10-09T21:23:09.438Z,98563.67
2018-10-09T21:25:38.347Z,98564.03
2018-10-09T21:28:07.642Z,98565.22
2018-10-09T21:30:36.426Z,98562.28
2018-10-09T21:33:05.142Z,98565.82
2018-10-09T21:35:33.886Z,98561.45
2018-10-09T21:38:02.646Z,98563.11
2018-10-09T21:40:31.353Z,98564.46
2018-10-09T21:43:00.219Z,98563.91
2018-10-09T21:45:28.926Z,98557.39
2018-10-09T21:47:58.674Z,98557.02
2018-10-09T21:50:28.262Z,98549.33
2018-10-09T21:52:57.585Z,98551.91
2018-10-09T21:55:26.961Z,98553.89
2018-10-09T21:57:56.593Z,98555.79
2018-10-09T22:00:25.367Z,98557.74
2018-10-09T22:02:54.278Z,98561.50
2018-10-09T22:05:23.043Z,98564.96
2018-10-09T22:07:54.984Z,98559.84
2018-10-09T22:10:23.788Z,98557.02
2018-10-09T22:12:52.658Z,98557.02
2018-10-09T22:15:21.414Z,98552.77
2018-10-09T22:17:50.278Z,98550.37
2018-10-09T22:20:19.119Z,98550.41
2018-10-09T22:22:47.825Z,98542.20
2018-10-09T22:25:16.794Z,98538.92
2018-10-09T22:27:45.522Z,98544.09
2018-10-09T22:30:14.253Z,98538.70
2018-10-09T22:32:43.058Z,98542.31
2018-10-09T22:35:11.747Z,98542.66
2018-10-09T22:37:40.503Z,98551.53
2018-10-09T22:40:09.254Z,98550.05
2018-10-09T22:42:38.076Z,98548.14
2018-10-09T22:45:06.910Z,98547.39
2018-10-09T22:47:35.701Z,98544.50
2018-10-09T22:50:04.449Z,98541.03
2018-10-09T22:52:33.336Z,98538.90
2018-10-09T22:55:02.211Z,98543.61
2018-10-09T22:57:30.960Z,98542.86
2018-10-09T22:59:59.825Z,98539.36
2018-10-09T23:02:28.635Z,98536.09
2018-10-09T23:04:57.345Z,98538.75
2018-10-09T23:07:26.103Z,98536.09
2018-10-09T23:09:55.065Z,98538.00
2018-10-09T23:12:23.926Z,98540.41
2018-10-09T23:14:52.726Z,98545.52
2018-10-09T23:17:21.522Z,98535.80
2018-10-09T23:19:50.287Z,98535.84
2018-10-09T23:22:19.199Z,98529.75
2018-10-09T23:24:48.057Z,98526.00
2018-10-09T23:27:16.826Z,98526.84
2018-10-09T23:29:45.593Z,98529.56
2018-10-09T23:32:14.457Z,98523.99
2018-10-09T23:34:43.325Z,98525.06
2018-10-09T23:37:12.155Z,98528.91
2018-10-09T23:39:40.842Z,98525.70
2018-10-09T23:42:09.524Z,98531.91
2018-10-09T23:44:38.365Z,98525.50
2018-10-09T23:47:07.406Z,98528.50
2018-10-09T23:49:36.107Z,98522.36
2018-10-09T23:52:04.812Z,98521.02
2018-10-09T23:54:33.755Z,98521.02
2018-10-09T23:57:02.542Z,98517.24
2018-10-09T23:59:31.425Z,98509.19
